Time;durP1;ratioP1;P1;durP2;ratioP2;P2;SDS_P1;SDS_P2;PMS_P1;PMS_P2;Temp;Humidity;BMP_temperature;BMP_pressure;BME280_temperature;BME280_humidity;BME280_pressure;Samples;Min_cycle;Max_cycle;Signal;HPM_P1;HPM_P2
2022/01/27 00:03:24;;;;;;;;;10.00;8.00;;;;;12.62;41.08;99072.88;6290405;22;102982;-77
2022/01/27 00:05:58;;;;;;;;;12.75;11.25;;;;;12.60;41.63;99067.66;6277082;22;107007;-77
2022/01/27 00:08:36;;;;;;;;;8.75;8.00;;;;;12.60;41.93;99077.69;6289864;22;101974;-77
2022/01/27 00:11:10;;;;;;;;;8.25;7.75;;;;;12.58;41.84;99079.75;6292112;22;107763;-77
2022/01/27 00:13:48;;;;;;;;;7.75;7.50;;;;;12.58;41.43;99080.59;6293033;22;101784;-77
2022/01/27 00:16:20;;;;;;;;;7.75;6.50;;;;;12.57;41.93;99080.78;6288671;22;102039;-77
2022/01/27 00:18:48;;;;;;;;;8.50;7.75;;;;;12.53;41.09;99067.63;6292307;22;102126;-77
2022/01/27 00:21:18;;;;;;;;;9.00;7.00;;;;;12.52;41.35;99052.38;6287917;22;103310;-77
2022/01/27 00:23:45;;;;;;;;;10.25;8.25;;;;;12.52;41.79;99055.09;6282364;22;101842;-77
2022/01/27 00:26:13;;;;;;;;;8.25;7.75;;;;;12.49;42.09;99055.50;6293216;22;102274;-77
2022/01/27 00:28:41;;;;;;;;;8.00;7.00;;;;;12.49;41.77;99066.38;6284940;22;102056;-77
2022/01/27 00:31:08;;;;;;;;;7.50;6.00;;;;;12.48;41.30;99055.72;6282146;22;103321;-77
2022/01/27 00:33:41;;;;;;;;;7.00;7.00;;;;;12.48;41.86;99061.97;6277527;22;102162;-77
2022/01/27 00:36:08;;;;;;;;;8.50;8.00;;;;;12.47;41.20;99057.56;6288325;22;101974;-77
2022/01/27 00:38:35;;;;;;;;;9.00;8.00;;;;;12.47;41.40;99057.56;6299170;22;102134;-77
2022/01/27 00:41:02;;;;;;;;;8.00;7.75;;;;;12.46;41.49;99061.34;6288468;22;110506;-77
2022/01/27 00:43:29;;;;;;;;;7.25;4.50;;;;;12.44;41.34;99057.16;6293032;22;101714;-77
2022/01/27 00:45:56;;;;;;;;;8.50;7.00;;;;;12.44;42.04;99057.16;6285759;22;101721;-77
2022/01/27 00:48:23;;;;;;;;;7.25;7.25;;;;;12.45;41.52;99054.25;6288640;22;101821;-77
2022/01/27 00:50:59;;;;;;;;;8.75;8.00;;;;;12.43;41.11;99050.88;6287097;22;103291;-77
2022/01/27 00:53:35;;;;;;;;;7.75;7.00;;;;;12.43;41.63;99042.75;6289597;22;101738;-77
2022/01/27 00:56:16;;;;;;;;;7.75;6.00;;;;;12.43;42.19;99039.19;6303460;22;102194;-77
2022/01/27 01:01:17;;;;;;;;;8.00;7.00;;;;;12.40;42.13;99045.03;6302254;22;103109;-77
2022/01/27 01:03:48;;;;;;;;;8.00;7.00;;;;;12.38;42.21;99050.66;6301315;22;101612;-77
2022/01/27 01:19:41;;;;;;;;;8.75;7.00;;;;;12.32;41.23;99029.78;6275858;22;102307;-76
2022/01/27 01:30:34;;;;;;;;;8.25;5.25;;;;;12.30;41.94;99023.72;6313269;22;101853;-77
2022/01/27 01:33:04;;;;;;;;;7.75;7.00;;;;;12.28;41.98;99028.50;6319398;22;103357;-77
2022/01/27 01:36:00;;;;;;;;;6.50;5.00;;;;;12.29;41.67;99027.47;6314390;22;102173;-77
2022/01/27 01:38:29;;;;;;;;;6.75;5.25;;;;;12.27;41.64;99024.13;6310514;22;102230;-77
2022/01/27 01:40:57;;;;;;;;;5.50;4.75;;;;;12.30;42.04;99012.88;6309234;22;101683;-77
2022/01/27 01:43:24;;;;;;;;;7.00;6.50;;;;;12.33;40.99;99006.22;6291147;22;103807;-77
2022/01/27 01:45:51;;;;;;;;;4.75;4.00;;;;;12.36;41.26;99008.50;6322526;22;101888;-77
2022/01/27 01:48:18;;;;;;;;;7.25;7.00;;;;;12.36;41.40;99009.34;6279410;22;101848;-77
2022/01/27 01:50:46;;;;;;;;;7.50;7.25;;;;;12.37;41.00;99002.91;6302853;22;102040;-77
2022/01/27 01:53:13;;;;;;;;;7.00;5.50;;;;;12.38;41.15;99001.03;6308851;22;103316;-77
2022/01/27 01:55:41;;;;;;;;;8.75;6.50;;;;;12.39;41.47;99000.81;6306212;22;102395;-77
2022/01/27 01:58:08;;;;;;;;;4.25;4.00;;;;;12.39;41.63;99000.81;6323731;22;102152;-77
2022/01/27 02:00:35;;;;;;;;;10.25;8.25;;;;;12.39;41.02;98995.38;6318677;22;101777;-77
2022/01/27 02:03:02;;;;;;;;;9.50;5.50;;;;;12.34;41.59;99003.28;6291420;22;103290;-77
2022/01/27 02:05:35;;;;;;;;;7.50;5.50;;;;;12.29;41.23;99003.06;6273555;22;104292;-77
2022/01/27 02:18:48;;;;;;;;;8.00;5.00;;;;;12.25;41.17;98985.53;6308285;22;102106;-77
2022/01/27 02:21:15;;;;;;;;;4.25;3.25;;;;;12.24;41.88;98989.28;6316684;22;101775;-77
2022/01/27 02:23:43;;;;;;;;;5.25;5.25;;;;;12.23;41.74;98986.78;6276702;22;103479;-77
2022/01/27 02:26:10;;;;;;;;;7.00;5.00;;;;;12.23;41.38;98984.06;6326929;22;101706;-76
2022/01/27 02:28:37;;;;;;;;;6.50;4.00;;;;;12.23;41.27;98982.19;6309540;22;102072;-77
2022/01/27 02:31:04;;;;;;;;;5.25;5.25;;;;;12.21;41.82;98972.56;6316734;22;101886;-77
2022/01/27 02:33:32;;;;;;;;;8.50;6.00;;;;;12.20;41.44;98960.06;6315136;22;103496;-77
2022/01/27 02:35:59;;;;;;;;;7.50;6.00;;;;;12.19;41.97;98961.94;6318677;22;101898;-77
2022/01/27 02:38:26;;;;;;;;;8.25;7.75;;;;;12.18;41.92;98979.25;6294977;22;104259;-77
2022/01/27 02:40:54;;;;;;;;;8.00;6.00;;;;;12.17;41.79;98972.16;6325544;22;102066;-77
2022/01/27 02:43:24;;;;;;;;;6.75;3.50;;;;;12.17;42.09;98977.56;6263185;22;103464;-76
2022/01/27 02:45:59;;;;;;;;;7.50;4.00;;;;;12.15;41.97;98976.94;6322061;22;102308;-76
2022/01/27 02:48:28;;;;;;;;;7.00;5.50;;;;;12.15;42.16;98974.25;6287705;22;101788;-77
2022/01/27 02:50:57;;;;;;;;;7.75;5.00;;;;;12.12;42.04;98971.91;6288575;22;102365;-77
2022/01/27 02:53:24;;;;;;;;;10.50;7.00;;;;;12.11;41.99;98969.41;6309742;22;103609;-77
2022/01/27 02:55:51;;;;;;;;;4.50;4.50;;;;;12.12;41.68;98973.78;6323170;22;103782;-77
2022/01/27 02:58:18;;;;;;;;;6.00;4.50;;;;;12.11;42.09;98967.56;6288037;22;101972;-77
2022/01/27 03:00:45;;;;;;;;;8.00;5.25;;;;;12.10;41.52;98965.03;6322288;22;101836;-77
2022/01/27 03:03:12;;;;;;;;;7.25;5.25;;;;;12.10;42.10;98967.75;6288780;22;103285;-77
2022/01/27 03:05:40;;;;;;;;;5.25;4.00;;;;;12.10;42.20;98965.88;6320839;22;101885;-77
2022/01/27 03:08:07;;;;;;;;;4.50;3.50;;;;;12.17;41.28;98966.72;6321879;22;101803;-77
2022/01/27 03:10:39;;;;;;;;;7.00;4.50;;;;;12.21;41.53;98962.56;6317229;22;101752;-77
2022/01/27 03:13:06;;;;;;;;;8.00;5.25;;;;;12.24;41.51;98964.91;6318986;22;103303;-77
2022/01/27 03:15:33;;;;;;;;;6.00;4.25;;;;;12.25;41.25;98955.69;6321451;22;102234;-77
2022/01/27 03:18:00;;;;;;;;;6.00;4.25;;;;;12.28;41.80;98960.72;6290608;22;101844;-77
2022/01/27 03:20:32;;;;;;;;;5.00;3.50;;;;;12.31;41.11;98954.88;6320362;22;102168;-77
2022/01/27 03:23:02;;;;;;;;;4.50;4.00;;;;;12.35;41.64;98950.72;6324512;22;103261;-77
2022/01/27 03:25:29;;;;;;;;;6.75;5.25;;;;;12.37;41.76;98948.66;6323384;22;101945;-77
2022/01/27 03:27:56;;;;;;;;;8.00;5.75;;;;;12.40;42.04;98936.56;6321155;22;103487;-77
2022/01/27 03:30:23;;;;;;;;;5.50;4.75;;;;;12.44;41.17;98938.66;6326517;22;102662;-77
2022/01/27 03:32:50;;;;;;;;;4.25;4.00;;;;;12.46;41.06;98941.19;6314323;22;103234;-77
2022/01/27 03:35:17;;;;;;;;;5.00;4.00;;;;;12.51;41.53;98950.38;6311315;22;101696;-77
2022/01/27 03:37:44;;;;;;;;;4.75;4.00;;;;;12.55;41.30;98950.81;6324834;22;101991;-77
2022/01/27 03:40:12;;;;;;;;;5.00;4.00;;;;;12.56;41.70;98957.91;6329641;22;103322;-77
2022/01/27 03:42:45;;;;;;;;;2.00;2.00;;;;;12.59;41.69;98959.34;6323341;22;108092;-77
2022/01/27 03:45:14;;;;;;;;;4.00;3.75;;;;;12.63;41.41;98968.75;6312684;22;103984;-76
2022/01/27 03:47:42;;;;;;;;;4.00;3.50;;;;;12.64;40.86;98963.13;6321146;22;101811;-77
2022/01/27 03:50:09;;;;;;;;;5.50;4.25;;;;;12.67;40.94;98961.88;6321217;22;101797;-76
2022/01/27 03:52:36;;;;;;;;;4.00;4.00;;;;;12.69;41.71;98957.09;6321255;22;103373;-76
2022/01/27 03:55:03;;;;;;;;;4.00;4.00;;;;;12.71;41.42;98958.53;6311695;22;101875;-77
2022/01/27 03:57:31;;;;;;;;;7.50;5.50;;;;;12.73;41.02;98959.19;6312703;22;101832;-76
2022/01/27 03:59:58;;;;;;;;;4.00;4.00;;;;;12.75;40.64;98950.81;6323229;22;101871;-77
2022/01/27 04:02:25;;;;;;;;;4.00;4.00;;;;;12.75;41.54;98950.81;6313238;22;103317;-77
2022/01/27 04:04:52;;;;;;;;;3.75;3.00;;;;;12.77;41.23;98935.19;6316766;22;111446;-77
2022/01/27 04:07:19;;;;;;;;;8.00;4.00;;;;;12.76;40.78;98933.50;6317748;22;101925;-76
2022/01/27 04:09:46;;;;;;;;;4.00;4.00;;;;;12.78;40.59;98923.28;6323254;22;101727;-76
2022/01/27 04:12:13;;;;;;;;;4.75;4.75;;;;;12.78;40.68;98926.00;6322423;22;103327;-77
2022/01/27 04:14:40;;;;;;;;;6.75;4.50;;;;;12.80;40.82;98913.03;6328200;22;101833;-77
2022/01/27 04:17:07;;;;;;;;;6.50;4.25;;;;;12.81;40.58;98917.44;6318802;22;102003;-77
2022/01/27 04:19:34;;;;;;;;;4.50;4.25;;;;;12.82;41.42;98924.53;6283760;22;102250;-77
2022/01/27 04:22:02;;;;;;;;;4.00;3.25;;;;;12.83;41.08;98915.38;6314657;22;103320;-77
2022/01/27 04:24:30;;;;;;;;;7.25;4.50;;;;;12.83;40.52;98915.38;6326955;22;101919;-77
2022/01/27 04:27:06;;;;;;;;;3.50;3.25;;;;;12.86;40.51;98923.91;6323328;22;101952;-77
2022/01/27 04:29:36;;;;;;;;;4.00;4.00;;;;;12.85;40.73;98915.97;6321576;22;101895;-77
2022/01/27 04:32:08;;;;;;;;;4.25;3.25;;;;;12.85;40.62;98916.81;6324697;22;103533;-77
2022/01/27 04:34:38;;;;;;;;;7.00;4.25;;;;;12.86;40.48;98914.94;6321588;22;102027;-76
2022/01/27 04:37:06;;;;;;;;;4.00;3.00;;;;;12.87;41.18;98922.88;6322539;22;101693;-76
2022/01/27 04:39:41;;;;;;;;;3.75;3.00;;;;;12.85;41.01;98913.25;6324885;22;101682;-76
2022/01/27 04:42:15;;;;;;;;;5.00;4.00;;;;;12.84;41.32;98906.16;6317588;22;109046;-77
2022/01/27 04:44:57;;;;;;;;;7.00;7.00;;;;;12.82;41.40;98898.25;6317035;22;101991;-77
2022/01/27 04:47:31;;;;;;;;;6.00;4.75;;;;;12.83;40.50;98899.09;6317917;22;101887;-77
2022/01/27 04:49:58;;;;;;;;;7.25;6.50;;;;;12.82;40.34;98897.41;6298489;22;102103;-77
2022/01/27 04:52:28;;;;;;;;;7.00;4.00;;;;;12.81;40.44;98891.16;6312735;22;103285;-77
2022/01/27 04:55:04;;;;;;;;;4.00;4.00;;;;;12.82;40.63;98891.97;6287485;22;101940;-76
2022/01/27 04:57:32;;;;;;;;;3.75;3.50;;;;;12.81;40.46;98884.88;6315291;22;102059;-77
2022/01/27 04:59:59;;;;;;;;;5.00;4.00;;;;;12.81;40.48;98893.03;6321297;22;101975;-77
2022/01/27 05:04:54;;;;;;;;;4.50;4.25;;;;;12.79;40.38;98897.81;6317837;22;101877;-77
2022/01/27 05:07:41;;;;;;;;;4.25;3.25;;;;;12.76;41.00;98901.78;6279120;22;101894;-77
2022/01/27 05:10:14;;;;;;;;;4.00;3.00;;;;;12.71;41.18;98898.00;6323687;22;101840;-77
2022/01/27 05:12:50;;;;;;;;;4.25;2.25;;;;;12.70;41.09;98893.66;6316906;22;107877;-77
2022/01/27 05:15:18;;;;;;;;;6.50;4.50;;;;;12.67;40.77;98885.91;6322426;22;101938;-77
2022/01/27 05:17:45;;;;;;;;;5.50;4.75;;;;;12.70;40.38;98882.81;6317431;22;101923;-77
2022/01/27 05:20:12;;;;;;;;;4.75;4.25;;;;;12.69;40.52;98875.69;6320098;22;102042;-76
2022/01/27 05:22:39;;;;;;;;;3.50;3.25;;;;;12.69;40.69;98876.53;6321947;22;107823;-77
2022/01/27 05:25:07;;;;;;;;;4.00;4.00;;;;;12.71;40.48;98868.16;6307205;22;102060;-76
2022/01/27 05:27:34;;;;;;;;;8.75;4.25;;;;;12.70;41.09;98861.09;6315613;22;101928;-77
2022/01/27 05:30:02;;;;;;;;;5.00;4.00;;;;;12.67;41.21;98862.31;6309560;22;101862;-77
2022/01/27 05:32:29;;;;;;;;;3.50;3.50;;;;;12.65;41.35;98855.47;6268925;22;103349;-77
2022/01/27 05:34:56;;;;;;;;;3.75;3.75;;;;;12.64;41.55;98856.50;6301173;22;102462;-77
2022/01/27 05:37:23;;;;;;;;;8.25;7.25;;;;;12.62;41.22;98859.41;6289024;22;102283;-77
2022/01/27 05:39:50;;;;;;;;;9.50;9.50;;;;;12.63;41.11;98857.53;6303517;22;102303;-77
2022/01/27 05:42:17;;;;;;;;;11.00;10.25;;;;;12.63;41.54;98849.38;6296372;22;104242;-78
2022/01/27 05:44:44;;;;;;;;;12.25;10.75;;;;;12.62;41.96;98859.41;6308319;22;102177;-77
2022/01/27 05:47:11;;;;;;;;;14.25;10.00;;;;;12.61;41.79;98859.63;6312588;22;102446;-77
2022/01/27 05:49:38;;;;;;;;;6.50;6.50;;;;;12.58;41.76;98836.44;6286577;22;102206;-78
2022/01/27 05:52:05;;;;;;;;;11.50;10.00;;;;;12.58;41.13;98833.72;6308235;22;104175;-77
2022/01/27 05:54:34;;;;;;;;;14.00;11.75;;;;;12.51;41.18;98836.47;6308380;22;101870;-77
2022/01/27 05:57:01;;;;;;;;;11.00;9.75;;;;;12.48;41.15;98828.72;6310729;22;102088;-77
2022/01/27 05:59:28;;;;;;;;;10.00;8.75;;;;;12.46;41.20;98829.97;6312731;22;102701;-77
2022/01/27 06:01:55;;;;;;;;;9.50;8.00;;;;;12.46;40.95;98824.56;6307597;22;104034;-77
2022/01/27 06:04:22;;;;;;;;;9.25;9.25;;;;;12.44;41.81;98807.66;6310258;22;102549;-77
2022/01/27 06:06:50;;;;;;;;;11.50;10.00;;;;;12.41;41.36;98816.19;6307076;22;102483;-77
2022/01/27 06:09:17;;;;;;;;;15.75;12.25;;;;;12.42;42.26;98821.44;6304220;22;102084;-77
2022/01/27 06:11:44;;;;;;;;;10.75;9.25;;;;;12.43;41.70;98814.09;6304141;22;103897;-77
2022/01/27 06:14:14;;;;;;;;;12.25;9.25;;;;;12.43;41.38;98822.25;6306371;22;102054;-77
2022/01/27 06:16:44;;;;;;;;;14.25;11.00;;;;;12.42;42.17;98823.31;6305171;22;102090;-77
2022/01/27 06:19:11;;;;;;;;;9.50;9.50;;;;;12.39;41.57;98835.38;6310994;22;102129;-77
2022/01/27 06:21:40;;;;;;;;;10.00;7.50;;;;;12.37;42.22;98839.34;6303467;22;103836;-78
2022/01/27 06:24:08;;;;;;;;;14.75;11.00;;;;;12.35;41.71;98846.84;6302288;22;102097;-77
2022/01/27 06:26:35;;;;;;;;;14.00;11.25;;;;;12.33;42.18;98816.41;6306847;22;101873;-77
2022/01/27 06:29:03;;;;;;;;;13.50;12.00;;;;;12.31;41.62;98789.50;6301773;22;102608;-77
2022/01/27 06:31:30;;;;;;;;;10.25;10.25;;;;;12.31;41.63;98794.91;6292618;22;104374;-77
2022/01/27 06:33:57;;;;;;;;;9.75;9.00;;;;;12.29;42.17;98805.13;6290337;22;102493;-77
2022/01/27 06:36:25;;;;;;;;;10.75;9.75;;;;;12.28;41.57;98808.91;6296725;22;102112;-77
2022/01/27 06:38:54;;;;;;;;;10.75;10.75;;;;;12.28;41.94;98802.63;6302901;22;102221;-77
2022/01/27 06:41:21;;;;;;;;;8.50;8.50;;;;;12.25;42.11;98801.16;6305448;22;103975;-77
2022/01/27 06:43:48;;;;;;;;;13.50;10.00;;;;;12.25;42.18;98792.19;6310488;22;102476;-77
2022/01/27 06:46:15;;;;;;;;;12.75;11.00;;;;;12.23;42.42;98783.44;6305198;22;102431;-77
2022/01/27 06:48:42;;;;;;;;;12.50;10.00;;;;;12.22;41.97;98798.88;6320380;22;102192;-77
2022/01/27 06:51:09;;;;;;;;;10.50;10.00;;;;;12.21;42.06;98797.19;6310030;22;104011;-77
2022/01/27 06:53:36;;;;;;;;;12.75;10.50;;;;;12.21;42.24;98813.47;6306292;22;102117;-77
2022/01/27 06:56:04;;;;;;;;;14.00;13.25;;;;;12.20;41.76;98811.81;6311703;22;102408;-77
2022/01/27 06:58:34;;;;;;;;;12.75;10.75;;;;;12.22;41.75;98811.59;6313087;22;102325;-77
2022/01/27 07:01:01;;;;;;;;;11.00;10.50;;;;;12.20;41.83;98809.09;6313623;22;103025;-77
2022/01/27 07:03:33;;;;;;;;;13.00;10.75;;;;;12.20;42.32;98806.38;6310560;22;102133;-77
2022/01/27 07:06:00;;;;;;;;;13.25;11.00;;;;;12.20;42.40;98814.53;6313464;22;102525;-77
2022/01/27 07:08:27;;;;;;;;;12.25;10.75;;;;;12.21;42.21;98813.47;6306575;22;102751;-78
2022/01/27 07:10:54;;;;;;;;;14.25;11.50;;;;;12.20;42.11;98795.53;6312788;22;104039;-78
2022/01/27 07:13:21;;;;;;;;;13.50;10.75;;;;;12.19;42.63;98798.44;6312745;22;102403;-77
2022/01/27 07:15:48;;;;;;;;;15.25;12.75;;;;;12.18;42.06;98792.19;6301295;22;101832;-77
2022/01/27 07:18:15;;;;;;;;;12.00;10.00;;;;;12.17;42.39;98801.34;6311537;22;104089;-77
2022/01/27 07:20:42;;;;;;;;;14.50;11.75;;;;;12.16;42.02;98796.97;6305082;22;108517;-77
2022/01/27 07:23:09;;;;;;;;;13.75;11.00;;;;;12.16;41.88;98801.59;6306777;22;102192;-77
2022/01/27 07:25:36;;;;;;;;;10.50;9.50;;;;;12.24;41.85;98783.25;6303644;22;102215;-77
2022/01/27 07:28:04;;;;;;;;;10.50;10.00;;;;;12.24;41.88;98780.53;6308125;22;102216;-77
2022/01/27 07:30:31;;;;;;;;;14.00;12.50;;;;;12.29;41.88;98777.19;6314065;22;103667;-78
2022/01/27 07:32:58;;;;;;;;;9.00;7.75;;;;;12.32;41.56;98774.91;6309941;22;102165;-77
2022/01/27 07:35:25;;;;;;;;;13.75;10.25;;;;;12.37;41.58;98772.41;6312064;22;102072;-78
2022/01/27 07:37:52;;;;;;;;;11.75;9.50;;;;;12.41;41.90;98776.38;6315220;22;102429;-78
2022/01/27 07:40:19;;;;;;;;;16.50;12.25;;;;;12.44;41.61;98767.81;6310623;22;103945;-77
2022/01/27 07:43:09;;;;;;;;;11.25;9.00;;;;;12.47;41.51;98764.66;6311631;22;102467;-77
2022/01/27 07:45:37;;;;;;;;;11.75;9.50;;;;;12.50;42.03;98750.69;6303389;22;102223;-77
2022/01/27 07:48:04;;;;;;;;;13.25;9.75;;;;;12.54;41.83;98761.97;6304189;22;102151;-77
2022/01/27 07:50:31;;;;;;;;;9.25;8.50;;;;;12.58;41.57;98751.53;6308064;22;102791;-78
2022/01/27 07:52:58;;;;;;;;;12.50;10.00;;;;;12.60;41.51;98750.28;6300779;22;102434;-77
2022/01/27 07:55:25;;;;;;;;;11.50;9.00;;;;;12.62;41.30;98744.63;6304853;22;102082;-77
2022/01/27 07:57:52;;;;;;;;;10.50;9.75;;;;;12.65;41.29;98749.66;6306680;22;102148;-77
2022/01/27 08:00:20;;;;;;;;;9.50;8.00;;;;;12.68;41.65;98738.38;6306672;22;103970;-77
2022/01/27 08:02:47;;;;;;;;;9.75;9.50;;;;;12.72;41.53;98731.47;6280001;22;102403;-77
2022/01/27 08:05:14;;;;;;;;;14.00;10.75;;;;;12.73;41.47;98733.16;6313946;22;102111;-78
2022/01/27 08:07:41;;;;;;;;;7.25;7.00;;;;;12.75;40.87;98728.31;6311589;22;102546;-77
2022/01/27 08:10:08;;;;;;;;;10.50;9.00;;;;;12.78;41.71;98727.94;6301842;22;103923;-78
2022/01/27 08:12:42;;;;;;;;;14.00;10.00;;;;;12.83;41.73;98725.41;6308287;22;102006;-78
2022/01/27 08:15:11;;;;;;;;;9.50;8.75;;;;;12.86;41.56;98714.13;6308719;22;101861;-78
2022/01/27 08:17:38;;;;;;;;;10.25;9.75;;;;;12.88;41.61;98714.72;6315588;22;102520;-78
2022/01/27 08:20:06;;;;;;;;;8.75;8.50;;;;;12.92;40.85;98708.66;6276169;22;103752;-77
2022/01/27 08:22:40;;;;;;;;;10.25;10.25;;;;;12.95;41.58;98707.41;6275891;22;102334;-77
2022/01/27 08:25:07;;;;;;;;;10.50;10.00;;;;;12.97;40.89;98711.56;6282541;22;102400;-78
2022/01/27 08:27:36;;;;;;;;;13.00;10.00;;;;;13.00;41.54;98720.34;6282094;22;102278;-78
2022/01/27 08:30:05;;;;;;;;;9.00;9.00;;;;;13.01;41.12;98717.44;6275957;22;103955;-77
2022/01/27 08:32:47;;;;;;;;;11.00;8.50;;;;;13.03;41.01;98718.03;6308938;22;102467;-77
2022/01/27 08:35:17;;;;;;;;;10.75;9.75;;;;;13.06;40.65;98709.44;6277877;22;102291;-78
2022/01/27 08:37:44;;;;;;;;;9.50;9.00;;;;;13.08;40.97;98701.94;6283113;22;102383;-78
2022/01/27 08:40:13;;;;;;;;;11.00;10.75;;;;;13.12;40.63;98722.22;6309817;22;108611;-78
2022/01/27 08:43:01;;;;;;;;;10.00;8.00;;;;;13.13;40.82;98709.47;6283751;22;102158;-78
2022/01/27 08:45:28;;;;;;;;;10.00;9.75;;;;;13.17;40.44;98719.69;6310997;22;102321;-77
2022/01/27 08:47:57;;;;;;;;;11.75;9.75;;;;;13.18;40.91;98709.66;6304312;22;102310;-78
2022/01/27 08:50:25;;;;;;;;;10.25;9.00;;;;;13.19;41.18;98709.44;6307450;22;103939;-78
2022/01/27 08:52:52;;;;;;;;;9.00;8.25;;;;;13.21;40.94;98710.06;6307114;22;102192;-78
2022/01/27 08:55:21;;;;;;;;;16.75;11.00;;;;;13.23;40.93;98697.13;6301540;22;102231;-78
2022/01/27 08:57:49;;;;;;;;;9.25;7.75;;;;;13.25;40.87;98692.28;6300485;22;102426;-78
2022/01/27 09:00:16;;;;;;;;;10.50;8.00;;;;;13.27;40.43;98695.63;6279247;22;104101;-78
2022/01/27 09:02:50;;;;;;;;;9.50;8.25;;;;;13.31;41.06;98698.75;6276024;22;102433;-77
2022/01/27 09:05:16;;;;;;;;;8.75;7.00;;;;;13.33;40.85;98697.47;6310173;22;101881;-78
2022/01/27 09:07:44;;;;;;;;;10.25;8.25;;;;;13.36;40.63;98705.19;6305766;22;101980;-77
2022/01/27 09:10:11;;;;;;;;;10.00;9.00;;;;;13.37;40.87;98706.84;6270319;22;103993;-78
2022/01/27 09:12:38;;;;;;;;;9.25;9.00;;;;;13.40;40.70;98694.72;6309550;22;102226;-78
2022/01/27 09:15:05;;;;;;;;;9.00;9.00;;;;;13.43;41.13;98688.03;6275246;22;102306;-78
2022/01/27 09:17:39;;;;;;;;;9.75;8.50;;;;;13.44;40.73;98684.25;6292455;22;102553;-78
2022/01/27 09:20:08;;;;;;;;;9.75;9.00;;;;;13.46;40.93;98677.56;6276616;22;103987;-78
2022/01/27 09:22:36;;;;;;;;;8.00;7.75;;;;;13.48;40.27;98691.75;6299270;22;102139;-78
2022/01/27 09:25:11;;;;;;;;;8.00;8.00;;;;;13.50;39.85;98680.69;6308202;22;102215;-77
2022/01/27 09:27:38;;;;;;;;;8.50;7.00;;;;;13.50;40.29;98675.25;6286645;22;102179;-78
2022/01/27 09:30:06;;;;;;;;;12.25;10.25;;;;;13.54;40.85;98668.34;6311515;22;104145;-78
2022/01/27 09:32:34;;;;;;;;;9.00;8.75;;;;;13.55;40.81;98659.13;6309734;22;102277;-78
2022/01/27 09:35:03;;;;;;;;;7.50;6.25;;;;;13.54;39.87;98647.44;6310463;22;105011;-78
2022/01/27 09:37:30;;;;;;;;;10.75;8.50;;;;;13.59;40.54;98650.31;6313934;22;102105;-78
2022/01/27 09:39:57;;;;;;;;;9.75;8.25;;;;;13.60;40.17;98645.72;6307160;22;103794;-77
2022/01/27 09:42:27;;;;;;;;;9.50;8.50;;;;;13.61;40.00;98637.34;6309427;22;102232;-77
2022/01/27 09:44:54;;;;;;;;;10.75;9.50;;;;;13.64;40.41;98627.94;6305403;22;102020;-78
2022/01/27 09:47:25;;;;;;;;;13.25;8.00;;;;;13.67;40.92;98636.47;6286326;22;102150;-78
2022/01/27 09:50:03;;;;;;;;;7.75;7.00;;;;;13.69;40.07;98622.66;6253012;22;110535;-78
2022/01/27 09:52:30;;;;;;;;;9.25;8.50;;;;;13.71;40.42;98626.00;6307947;22;102097;-78
2022/01/27 09:54:58;;;;;;;;;7.75;6.25;;;;;13.72;39.89;98614.06;6306605;22;102490;-77
2022/01/27 09:57:25;;;;;;;;;10.50;6.25;;;;;13.74;40.83;98598.38;6304975;22;102201;-78
2022/01/27 09:59:52;;;;;;;;;6.25;6.25;;;;;13.74;40.12;98588.31;6306885;22;106041;-78
2022/01/27 10:02:21;;;;;;;;;8.50;6.25;;;;;13.77;39.84;98592.50;6305148;22;102078;-77
2022/01/27 10:04:51;;;;;;;;;8.00;8.00;;;;;13.79;40.22;98580.34;6281045;22;102458;-78
2022/01/27 10:07:30;;;;;;;;;6.75;6.25;;;;;13.80;39.89;98570.31;6303452;22;102118;-77
2022/01/27 10:10:03;;;;;;;;;8.00;6.00;;;;;13.82;39.94;98560.06;6299584;22;104299;-78
2022/01/27 10:12:35;;;;;;;;;5.50;5.50;;;;;13.82;40.56;98560.88;6304171;22;102645;-78
2022/01/27 10:15:11;;;;;;;;;6.75;5.75;;;;;13.83;40.12;98578.00;6306591;22;105162;-78
2022/01/27 10:17:46;;;;;;;;;8.50;8.00;;;;;13.85;40.69;98567.75;6280859;22;102173;-78
2022/01/27 10:20:17;;;;;;;;;10.75;6.50;;;;;13.87;40.50;98559.41;6300763;22;108795;-78
2022/01/27 10:23:21;;;;;;;;;8.00;5.50;;;;;13.90;40.58;98553.50;6306510;22;102284;-78
2022/01/27 10:25:54;;;;;;;;;8.50;6.25;;;;;13.91;39.83;98558.72;6301433;22;102497;-78
2022/01/27 10:28:32;;;;;;;;;7.00;6.25;;;;;13.93;40.01;98551.16;6311508;22;102570;-77
2022/01/27 10:31:00;;;;;;;;;5.25;5.00;;;;;13.96;39.82;98569.72;6308943;22;104010;-78
2022/01/27 10:33:40;;;;;;;;;7.50;5.00;;;;;13.97;40.30;98563.25;6307027;22;105319;-78
2022/01/27 10:36:17;;;;;;;;;8.00;6.50;;;;;14.00;39.80;98559.28;6281796;22;102418;-77
2022/01/27 10:38:44;;;;;;;;;8.75;6.50;;;;;14.00;39.66;98562.81;6298435;22;102876;-78
2022/01/27 10:41:15;;;;;;;;;5.00;5.00;;;;;14.02;39.73;98576.16;6310027;22;108782;-78
2022/01/27 10:43:43;;;;;;;;;8.25;6.25;;;;;14.02;39.65;98565.28;6313655;22;102199;-78
2022/01/27 10:46:24;;;;;;;;;6.75;6.00;;;;;14.03;39.91;98559.66;6282920;22;102303;-78
2022/01/27 10:49:08;;;;;;;;;9.00;8.00;;;;;14.05;40.17;98545.84;6296952;22;102547;-78
2022/01/27 10:51:44;;;;;;;;;6.25;6.25;;;;;14.06;39.50;98542.88;6280193;22;103998;-78
2022/01/27 10:56:44;;;;;;;;;8.00;6.00;;;;;14.08;40.08;98534.50;6302751;22;102424;-78
2022/01/27 10:59:17;;;;;;;;;9.75;8.75;;;;;14.08;40.26;98534.50;6309178;22;102331;-78
2022/01/27 11:01:49;;;;;;;;;7.00;7.00;;;;;14.10;40.56;98541.38;6280513;22;108852;-78
2022/01/27 11:04:17;;;;;;;;;5.75;5.00;;;;;14.10;40.37;98533.22;6281577;22;102444;-78
2022/01/27 11:06:58;;;;;;;;;5.25;4.75;;;;;14.12;40.47;98538.44;6308480;22;102434;-78
2022/01/27 11:09:27;;;;;;;;;5.75;4.75;;;;;14.12;40.23;98517.50;6282475;22;102427;-77
2022/01/27 11:11:56;;;;;;;;;6.00;5.00;;;;;14.13;39.33;98521.91;6310922;22;104445;-78
2022/01/27 11:14:25;;;;;;;;;5.00;5.00;;;;;14.13;39.71;98505.59;6314018;22;102487;-77
2022/01/27 11:16:56;;;;;;;;;6.25;6.25;;;;;14.14;40.05;98496.34;6303945;22;101971;-78
2022/01/27 11:19:52;;;;;;;;;4.25;4.00;;;;;14.15;39.58;98491.75;6312478;22;102059;-77
2022/01/27 11:22:40;;;;;;;;;6.25;5.00;;;;;14.16;40.20;98482.53;6308028;22;103993;-78
2022/01/27 11:25:51;;;;;;;;;6.00;4.50;;;;;14.15;39.97;98470.81;6280966;22;102459;-78
2022/01/27 11:28:01;;;;;;;;;5.75;4.25;;;;;14.16;40.28;98482.53;6306454;22;102718;-78
2022/01/27 11:30:40;;;;;;;;;8.00;6.00;;;;;14.18;39.52;98496.75;6258897;22;107646;-77
2022/01/27 11:33:13;;;;;;;;;7.50;4.75;;;;;14.18;39.74;98481.25;6303692;22;103916;-78
2022/01/27 11:36:23;;;;;;;;;6.25;5.00;;;;;14.18;39.29;98489.41;6302794;22;102078;-78
2022/01/27 11:38:50;;;;;;;;;8.25;5.75;;;;;14.19;40.07;98503.81;6276382;22;102216;-78
2022/01/27 11:41:43;;;;;;;;;6.50;4.00;;;;;14.20;40.23;98481.03;6312914;22;102489;-78
2022/01/27 11:44:31;;;;;;;;;5.25;4.00;;;;;14.21;39.40;98480.81;6306303;22;108915;-78
2022/01/27 11:47:08;;;;;;;;;6.00;5.75;;;;;14.22;40.01;98462.59;6289723;22;109925;-78
2022/01/27 11:49:57;;;;;;;;;5.00;4.00;;;;;14.23;39.67;98462.34;6304021;22;102595;-78
2022/01/27 11:52:31;;;;;;;;;5.25;4.75;;;;;14.24;39.96;98452.31;6306070;22;102648;-78
2022/01/27 11:55:24;;;;;;;;;4.50;3.75;;;;;14.24;40.25;98463.19;6311714;22;103998;-78
2022/01/27 11:57:52;;;;;;;;;5.00;4.00;;;;;14.25;39.48;98464.84;6284087;22;102481;-78
2022/01/27 12:00:21;;;;;;;;;4.00;4.00;;;;;14.24;39.53;98455.03;6313077;22;102189;-78
2022/01/27 12:03:04;;;;;;;;;3.75;2.75;;;;;14.25;39.93;98448.53;6313834;22;103545;-78
2022/01/27 12:05:39;;;;;;;;;9.50;9.00;;;;;14.25;39.47;98440.38;6302481;22;108855;-78
2022/01/27 12:08:09;;;;;;;;;6.00;5.50;;;;;14.25;39.76;98433.06;6307921;22;102294;-78
2022/01/27 12:10:46;;;;;;;;;5.75;2.75;;;;;14.25;39.31;98427.63;6310919;22;102408;-78
2022/01/27 12:13:43;;;;;;;;;4.00;4.00;;;;;14.25;39.58;98416.75;6309336;22;102415;-78
2022/01/27 12:19:03;;;;;;;;;3.50;3.25;;;;;14.27;39.30;98398.28;6300550;22;102311;-78
2022/01/27 12:21:51;;;;;;;;;8.00;5.50;;;;;14.26;40.03;98393.94;6312377;22;101903;-77